createdAt,value
2023-04-22T00:00:40.292Z,29.73
2023-04-22T00:03:40.953Z,32.75
2023-04-22T00:06:58.944Z,30.95
2023-04-22T00:10:03.897Z,28.55
2023-04-22T00:12:57.863Z,31.77
2023-04-22T00:15:54.868Z,28.77
2023-04-22T00:19:01.607Z,30.33
2023-04-22T00:22:10.591Z,30.25
2023-04-22T00:25:04.012Z,28.23
2023-04-22T00:28:27.610Z,30.77
2023-04-22T00:31:32.397Z,29.63
2023-04-22T00:34:20.809Z,31.60
2023-04-22T00:37:13.412Z,29.30
2023-04-22T00:40:01.174Z,28.52
2023-04-22T00:43:17.393Z,31.17
2023-04-22T00:46:03.874Z,32.40
2023-04-22T00:48:54.104Z,30.48
2023-04-22T00:52:03.219Z,29.90
2023-04-22T00:54:59.262Z,28.67
2023-04-22T00:57:47.267Z,27.27
2023-04-22T01:00:32.928Z,27.63
2023-04-22T01:03:27.048Z,28.13
2023-04-22T01:06:14.228Z,26.88
2023-04-22T01:08:59.840Z,27.38
2023-04-22T01:11:52.235Z,28.58
2023-04-22T01:14:42.646Z,29.02
2023-04-22T01:17:29.483Z,29.38
2023-04-22T01:20:15.777Z,28.80
2023-04-22T01:23:04.488Z,29.15
2023-04-22T01:25:50.870Z,29.08
2023-04-22T01:28:36.958Z,26.90
2023-04-22T01:31:23.366Z,28.83
2023-04-22T01:34:09.481Z,27.65
2023-04-22T01:36:55.299Z,29.40
2023-04-22T01:39:41.065Z,29.05
2023-04-22T01:42:26.801Z,27.40
2023-04-22T01:45:13.199Z,28.77
2023-04-22T01:47:58.671Z,27.35
2023-04-22T01:50:44.557Z,29.38
2023-04-22T01:53:29.983Z,26.63
2023-04-22T01:56:15.866Z,25.45
2023-04-22T01:59:01.298Z,28.20
2023-04-22T02:01:46.475Z,27.88
2023-04-22T02:04:32.495Z,27.55
2023-04-22T02:07:17.966Z,26.50
2023-04-22T02:10:05.461Z,26.45
2023-04-22T02:12:51.291Z,24.73
2023-04-22T02:15:36.969Z,26.83
2023-04-22T02:18:22.759Z,25.63
2023-04-22T02:21:09.072Z,26.80
2023-04-22T02:23:54.251Z,25.35
2023-04-22T02:26:39.752Z,25.73
2023-04-22T02:29:25.309Z,24.83
2023-04-22T02:32:10.744Z,24.20
2023-04-22T02:34:56.460Z,25.55
2023-04-22T02:37:42.027Z,27.70
2023-04-22T02:40:27.641Z,24.20
2023-04-22T02:43:13.230Z,26.77
2023-04-22T02:45:58.673Z,26.00
2023-04-22T02:48:44.502Z,28.52
2023-04-22T02:51:31.091Z,25.33
2023-04-22T02:54:16.809Z,24.95
2023-04-22T02:57:03.057Z,26.40
2023-04-22T02:59:48.500Z,25.50
2023-04-22T03:02:34.315Z,24.27
2023-04-22T03:05:19.768Z,24.45
2023-04-22T03:08:05.388Z,25.65
2023-04-22T03:10:51.062Z,25.38
2023-04-22T03:13:36.640Z,25.90
2023-04-22T03:16:26.161Z,26.25
2023-04-22T03:19:11.779Z,27.15
2023-04-22T03:21:58.278Z,26.30
2023-04-22T03:24:43.797Z,25.92
2023-04-22T03:27:29.352Z,25.90
2023-04-22T03:30:14.844Z,26.98
2023-04-22T03:33:00.551Z,25.63
2023-04-22T03:35:49.433Z,26.33
2023-04-22T03:38:34.652Z,25.00
2023-04-22T03:41:20.291Z,26.90
2023-04-22T03:44:05.498Z,28.13
2023-04-22T03:46:50.875Z,27.83
2023-04-22T03:49:36.855Z,26.60
2023-04-22T03:52:22.522Z,27.20
2023-04-22T03:55:08.555Z,27.88
2023-04-22T03:57:53.971Z,26.42
2023-04-22T04:00:39.752Z,26.90
2023-04-22T04:03:26.627Z,26.00
2023-04-22T04:06:13.776Z,23.73
2023-04-22T04:08:59.139Z,25.83
2023-04-22T04:11:44.674Z,26.88
2023-04-22T04:14:30.230Z,26.83
2023-04-22T04:17:15.799Z,29.23
2023-04-22T04:20:01.156Z,25.95
2023-04-22T04:22:46.779Z,26.92
2023-04-22T04:25:37.775Z,28.98
2023-04-22T04:28:23.078Z,27.10
2023-04-22T04:31:08.727Z,27.55
2023-04-22T04:33:57.389Z,28.90
2023-04-22T04:36:44.059Z,29.58
2023-04-22T04:39:29.990Z,26.67
2023-04-22T04:42:15.860Z,27.98
2023-04-22T04:45:01.262Z,27.75
2023-04-22T04:47:47.061Z,27.83
2023-04-22T04:50:32.971Z,26.67
2023-04-22T04:53:18.285Z,30.08
2023-04-22T04:56:04.312Z,29.65
2023-04-22T04:58:49.735Z,28.05
2023-04-22T05:01:35.944Z,27.98
2023-04-22T05:04:22.363Z,28.52
2023-04-22T05:07:08.391Z,27.58
2023-04-22T05:09:54.262Z,28.73
2023-04-22T05:12:40.971Z,28.27
2023-04-22T05:15:26.850Z,30.48
2023-04-22T05:18:12.888Z,27.23
2023-04-22T05:20:59.429Z,27.73
2023-04-22T05:23:44.827Z,27.27
2023-04-22T05:26:30.558Z,26.70
2023-04-22T05:29:15.970Z,27.75
2023-04-22T05:32:01.688Z,26.08
2023-04-22T05:34:47.976Z,25.27
2023-04-22T05:37:37.416Z,28.40
2023-04-22T05:40:23.308Z,27.70
2023-04-22T05:43:09.135Z,25.85
2023-04-22T05:45:54.800Z,27.30
2023-04-22T05:48:40.733Z,26.95
2023-04-22T05:51:26.621Z,28.70
2023-04-22T05:54:12.442Z,29.15
2023-04-22T05:56:58.540Z,27.92
2023-04-22T05:59:44.043Z,27.45
2023-04-22T06:02:29.691Z,28.83
2023-04-22T06:05:15.137Z,28.40
2023-04-22T06:08:00.883Z,27.52
2023-04-22T06:10:46.366Z,27.35
2023-04-22T06:13:31.951Z,31.48
2023-04-22T06:16:17.778Z,26.42
2023-04-22T06:19:03.380Z,28.85
2023-04-22T06:21:49.086Z,28.08
2023-04-22T06:24:34.453Z,29.45
2023-04-22T06:27:20.065Z,29.73
2023-04-22T06:30:06.776Z,32.63
2023-04-22T06:32:52.699Z,33.85
2023-04-22T06:35:38.661Z,35.35
2023-04-22T06:38:23.963Z,34.03
2023-04-22T06:41:09.489Z,34.85
2023-04-22T06:43:55.054Z,34.08
2023-04-22T06:46:40.819Z,35.35
2023-04-22T06:49:26.582Z,36.38
2023-04-22T06:52:12.414Z,35.00
2023-04-22T06:54:57.664Z,32.58
2023-04-22T06:57:43.168Z,31.88
2023-04-22T07:00:29.283Z,31.10
2023-04-22T07:03:14.709Z,32.10
2023-04-22T07:06:00.670Z,32.95
2023-04-22T07:08:46.115Z,32.90
2023-04-22T07:11:31.699Z,30.77
2023-04-22T07:14:32.485Z,32.70
2023-04-22T07:17:22.040Z,32.47
2023-04-22T07:20:08.547Z,34.33
2023-04-22T07:22:54.888Z,34.85
2023-04-22T07:25:41.335Z,36.67
2023-04-22T07:28:27.024Z,35.47
2023-04-22T07:31:12.802Z,39.85
2023-04-22T07:33:58.507Z,37.78
2023-04-22T07:36:44.130Z,37.20
2023-04-22T07:39:29.867Z,38.50
2023-04-22T07:42:15.222Z,36.55
2023-04-22T07:45:00.625Z,34.15
2023-04-22T07:47:46.320Z,34.05
2023-04-22T07:50:32.106Z,30.30
2023-04-22T07:53:17.960Z,30.25
2023-04-22T07:56:04.161Z,31.17
2023-04-22T07:58:49.923Z,27.48
2023-04-22T08:01:35.582Z,26.40
2023-04-22T08:04:24.640Z,25.77
2023-04-22T08:07:29.769Z,25.02
2023-04-22T08:10:16.766Z,24.02
2023-04-22T08:13:02.795Z,23.88
2023-04-22T08:15:48.311Z,23.80
2023-04-22T08:18:33.916Z,21.85
2023-04-22T08:21:19.627Z,18.20
2023-04-22T08:24:06.194Z,18.20
2023-04-22T08:26:52.388Z,16.48
2023-04-22T08:29:38.401Z,15.77
2023-04-22T08:32:26.432Z,16.35
2023-04-22T08:35:12.359Z,14.40
2023-04-22T08:37:58.288Z,17.40
2023-04-22T08:40:43.752Z,15.02
2023-04-22T08:43:29.336Z,15.45
2023-04-22T08:46:15.839Z,12.43
2023-04-22T08:49:03.989Z,12.40
2023-04-22T08:51:50.517Z,11.40
2023-04-22T08:54:37.499Z,9.73
2023-04-22T08:57:24.123Z,10.30
2023-04-22T09:00:10.138Z,9.70
2023-04-22T09:02:58.252Z,8.80
2023-04-22T09:05:45.454Z,9.50
2023-04-22T09:08:31.581Z,9.48
2023-04-22T09:11:18.115Z,8.88
2023-04-22T09:14:04.253Z,9.07
2023-04-22T09:16:50.557Z,8.18
2023-04-22T09:19:36.703Z,8.48
2023-04-22T09:22:22.163Z,9.32
2023-04-22T09:25:23.294Z,9.18
2023-04-22T09:28:13.019Z,8.98
2023-04-22T09:31:02.754Z,9.70
2023-04-22T09:33:54.563Z,9.80
2023-04-22T09:36:40.822Z,11.15
2023-04-22T09:39:26.889Z,10.40
2023-04-22T09:42:12.973Z,10.23
2023-04-22T09:45:01.275Z,10.80
2023-04-22T09:47:47.510Z,10.05
2023-04-22T09:50:32.821Z,10.20
2023-04-22T09:53:20.213Z,9.85
2023-04-22T09:56:06.267Z,10.73
2023-04-22T09:58:53.257Z,10.15
2023-04-22T10:01:41.422Z,11.60
2023-04-22T10:04:27.372Z,10.63
2023-04-22T10:07:14.517Z,10.05
2023-04-22T10:10:00.125Z,10.25
2023-04-22T10:12:48.976Z,10.02
2023-04-22T10:15:43.540Z,8.88
2023-04-22T10:18:30.796Z,10.40
2023-04-22T10:21:18.852Z,10.45
2023-04-22T10:24:09.342Z,10.10
2023-04-22T10:26:57.961Z,10.52
2023-04-22T10:29:43.855Z,10.10
2023-04-22T10:32:30.833Z,10.48
2023-04-22T10:35:19.361Z,9.82
2023-04-22T10:38:09.828Z,10.15
2023-04-22T10:41:03.318Z,9.70
2023-04-22T10:43:55.940Z,8.63
2023-04-22T10:46:42.569Z,8.18
2023-04-22T10:49:30.955Z,9.23
2023-04-22T10:52:29.251Z,8.35
2023-04-22T10:55:19.691Z,8.20
2023-04-22T10:58:52.496Z,8.38
2023-04-22T11:01:44.902Z,8.27
2023-04-22T11:04:34.605Z,7.25
2023-04-22T11:07:27.031Z,8.95
2023-04-22T11:10:31.662Z,9.35
2023-04-22T11:13:23.857Z,7.95
2023-04-22T11:16:13.049Z,7.88
2023-04-22T11:18:59.794Z,7.82
2023-04-22T11:21:45.462Z,8.18
2023-04-22T11:24:30.752Z,8.30
2023-04-22T11:27:18.814Z,7.15
2023-04-22T11:30:07.639Z,7.57
2023-04-22T11:32:59.958Z,6.57
2023-04-22T11:35:59.130Z,7.60
2023-04-22T11:39:00.331Z,7.25
2023-04-22T11:41:46.404Z,6.90
2023-04-22T11:44:32.316Z,9.45
2023-04-22T11:47:19.416Z,8.90
2023-04-22T11:50:09.875Z,7.43
2023-04-22T11:52:56.928Z,8.98
2023-04-22T11:55:43.861Z,7.32
2023-04-22T11:58:29.433Z,6.95
2023-04-22T12:01:14.895Z,7.38
2023-04-22T12:04:16.103Z,8.50
2023-04-22T12:07:07.684Z,7.05
2023-04-22T12:10:01.290Z,8.40
2023-04-22T12:12:48.852Z,7.95
2023-04-22T12:15:38.614Z,7.45
2023-04-22T12:18:32.430Z,7.15
2023-04-22T12:21:20.368Z,6.97
2023-04-22T12:24:13.031Z,7.28
2023-04-22T12:26:59.124Z,8.27
2023-04-22T12:30:14.938Z,7.75
2023-04-22T12:33:00.860Z,7.82
2023-04-22T12:35:51.914Z,7.95
2023-04-22T12:38:37.838Z,8.02
2023-04-22T12:41:23.846Z,8.15
2023-04-22T12:44:09.280Z,8.02
2023-04-22T12:46:54.843Z,7.85
2023-04-22T12:49:40.496Z,8.15
2023-04-22T12:52:26.087Z,7.38
2023-04-22T12:55:12.002Z,7.47
2023-04-22T12:57:57.959Z,7.68
2023-04-22T13:00:43.473Z,7.72
2023-04-22T13:03:29.305Z,7.85
2023-04-22T13:06:15.139Z,7.45
2023-04-22T13:09:00.719Z,7.82
2023-04-22T13:11:49.236Z,7.60
2023-04-22T13:14:35.279Z,7.97
2023-04-22T13:17:21.830Z,6.80
2023-04-22T13:20:09.576Z,7.15
2023-04-22T13:22:58.893Z,6.82
2023-04-22T13:25:44.533Z,7.47
2023-04-22T13:28:35.027Z,7.00
2023-04-22T13:31:21.659Z,6.70
2023-04-22T13:34:09.710Z,6.20
2023-04-22T13:36:56.609Z,7.25
2023-04-22T13:39:42.734Z,7.05
2023-04-22T13:42:28.449Z,7.35
2023-04-22T13:45:13.686Z,8.25
2023-04-22T13:47:59.575Z,7.82
2023-04-22T13:50:45.726Z,8.40
2023-04-22T13:53:34.078Z,9.40
2023-04-22T13:56:20.081Z,8.18
2023-04-22T13:59:05.738Z,9.38
2023-04-22T14:01:51.189Z,10.43
2023-04-22T14:04:36.487Z,10.00
2023-04-22T14:07:21.990Z,10.40
2023-04-22T14:10:08.827Z,9.93
2023-04-22T14:12:54.836Z,9.95
2023-04-22T14:15:40.848Z,10.18
2023-04-22T14:18:26.281Z,10.05
2023-04-22T14:21:12.760Z,10.35
2023-04-22T14:23:58.267Z,9.63
2023-04-22T14:26:44.026Z,10.20
2023-04-22T14:29:29.979Z,9.52
2023-04-22T14:32:18.577Z,9.55
2023-04-22T14:35:04.623Z,9.68
2023-04-22T14:37:50.182Z,9.25
2023-04-22T14:40:35.928Z,9.13
2023-04-22T14:43:21.340Z,9.50
2023-04-22T14:46:07.000Z,9.85
2023-04-22T14:48:52.547Z,8.93
2023-04-22T14:51:57.747Z,9.43
2023-04-22T14:54:43.713Z,8.55
2023-04-22T14:57:29.133Z,9.63
2023-04-22T15:00:15.216Z,8.30
2023-04-22T15:03:00.930Z,8.68
2023-04-22T15:05:49.424Z,8.23
2023-04-22T15:08:35.469Z,7.57
2023-04-22T15:11:21.097Z,7.18
2023-04-22T15:14:06.879Z,7.05
2023-04-22T15:17:13.263Z,8.38
2023-04-22T15:19:59.916Z,6.78
2023-04-22T15:22:48.722Z,6.95
2023-04-22T15:25:35.755Z,6.53
2023-04-22T15:28:21.537Z,6.60
2023-04-22T15:31:06.945Z,6.82
2023-04-22T15:33:55.474Z,7.50
2023-04-22T15:36:41.191Z,7.28
2023-04-22T15:39:26.640Z,7.22
2023-04-22T15:42:13.827Z,6.97
2023-04-22T15:45:00.033Z,6.60
2023-04-22T15:47:47.134Z,7.50
2023-04-22T15:50:33.190Z,6.78
2023-04-22T15:53:19.368Z,6.82
2023-04-22T15:56:04.899Z,5.43
2023-04-22T15:59:06.988Z,6.15
2023-04-22T16:01:53.688Z,5.77
2023-04-22T16:04:40.855Z,5.40
2023-04-22T16:07:27.471Z,4.97
2023-04-22T16:10:13.100Z,5.13
2023-04-22T16:13:21.108Z,5.72
2023-04-22T16:16:07.283Z,5.35
2023-04-22T16:18:54.680Z,6.18
2023-04-22T16:21:44.056Z,6.15
2023-04-22T16:24:29.611Z,5.82
2023-04-22T16:27:17.359Z,5.55
2023-04-22T16:30:03.052Z,5.75
2023-04-22T16:32:49.418Z,6.03
2023-04-22T16:35:35.676Z,6.10
2023-04-22T16:38:21.512Z,6.05
2023-04-22T16:41:06.892Z,5.85
2023-04-22T16:43:52.423Z,6.78
2023-04-22T16:46:38.025Z,6.55
2023-04-22T16:49:23.970Z,6.15
2023-04-22T16:52:09.794Z,6.38
2023-04-22T16:54:55.854Z,5.80
2023-04-22T16:57:54.444Z,6.50
2023-04-22T17:00:43.239Z,5.57
2023-04-22T17:03:32.509Z,5.93
2023-04-22T17:06:21.997Z,5.28
2023-04-22T17:09:09.899Z,5.53
2023-04-22T17:11:56.517Z,5.25
2023-04-22T17:14:41.969Z,5.15
2023-04-22T17:17:27.877Z,5.32
2023-04-22T17:20:13.645Z,6.05
2023-04-22T17:22:59.352Z,5.35
2023-04-22T17:25:50.295Z,5.85
2023-04-22T17:28:38.950Z,5.60
2023-04-22T17:31:25.052Z,5.28
2023-04-22T17:34:10.979Z,4.95
2023-04-22T17:36:59.554Z,5.13
2023-04-22T17:39:45.473Z,4.45
2023-04-22T17:42:44.637Z,5.78
2023-04-22T17:45:34.974Z,4.85
2023-04-22T17:48:20.857Z,4.55
2023-04-22T17:51:10.324Z,4.05
2023-04-22T17:53:58.608Z,3.95
2023-04-22T17:56:44.152Z,3.92
2023-04-22T17:59:32.617Z,4.07
2023-04-22T18:02:18.601Z,4.35
2023-04-22T18:05:05.720Z,3.83
2023-04-22T18:07:51.675Z,3.90
2023-04-22T18:10:39.030Z,3.67
2023-04-22T18:13:24.955Z,4.20
2023-04-22T18:17:14.807Z,4.40
2023-04-22T18:20:17.262Z,4.13
2023-04-22T18:23:04.037Z,4.25
2023-04-22T18:25:49.793Z,4.75
2023-04-22T18:28:40.258Z,4.50
2023-04-22T18:31:40.147Z,4.68
2023-04-22T18:34:33.367Z,4.97
2023-04-22T18:37:20.702Z,4.43
2023-04-22T18:40:10.812Z,5.07
2023-04-22T18:43:14.281Z,5.20
2023-04-22T18:46:03.232Z,4.70
2023-04-22T18:48:49.441Z,4.53
2023-04-22T18:54:50.299Z,4.40
2023-04-22T18:57:39.543Z,4.90
2023-04-22T19:00:33.292Z,5.15
2023-04-22T19:03:22.389Z,4.97
2023-04-22T19:06:08.401Z,4.72
2023-04-22T19:08:54.270Z,4.90
2023-04-22T19:11:39.863Z,6.07
2023-04-22T19:14:31.967Z,5.97
2023-04-22T19:17:23.299Z,5.65
2023-04-22T19:20:15.391Z,5.93
2023-04-22T19:23:10.977Z,5.82
2023-04-22T19:25:57.026Z,7.00
2023-04-22T19:28:51.751Z,7.47
2023-04-22T19:31:50.417Z,7.07
2023-04-22T19:34:37.108Z,8.10
2023-04-22T19:37:25.834Z,6.65
2023-04-22T19:40:20.946Z,7.90
2023-04-22T19:43:06.788Z,7.78
2023-04-22T19:45:56.061Z,7.53
2023-04-22T19:48:43.053Z,7.60
2023-04-22T19:52:10.823Z,8.63
2023-04-22T19:55:12.282Z,9.05
2023-04-22T19:57:59.563Z,8.52
2023-04-22T20:00:46.900Z,8.73
2023-04-22T20:03:42.869Z,10.25
2023-04-22T20:22:35.938Z,11.18
2023-04-22T20:25:50.285Z,10.23
2023-04-22T20:28:45.249Z,11.00
2023-04-22T20:31:31.180Z,11.15
2023-04-22T20:34:18.017Z,10.80
2023-04-22T20:37:10.354Z,11.07
2023-04-22T20:39:57.538Z,11.02
2023-04-22T20:42:43.795Z,11.95
2023-04-22T20:45:29.731Z,12.50
2023-04-22T20:48:15.807Z,12.35
2023-04-22T20:51:02.000Z,11.10
2023-04-22T20:53:48.033Z,12.70
2023-04-22T20:56:33.915Z,12.70
2023-04-22T20:59:20.408Z,13.23
2023-04-22T21:02:06.870Z,14.23
2023-04-22T21:04:53.473Z,14.60
2023-04-22T21:07:40.003Z,13.85
2023-04-22T21:10:26.159Z,17.00
2023-04-22T21:13:13.017Z,16.95
2023-04-22T21:16:02.030Z,15.73
2023-04-22T21:18:48.334Z,17.02
2023-04-22T21:21:34.828Z,16.30
2023-04-22T21:24:24.534Z,16.80
2023-04-22T21:27:10.969Z,17.88
2023-04-22T21:29:57.360Z,18.80
2023-04-22T21:32:43.667Z,19.90
2023-04-22T21:35:35.894Z,19.17
2023-04-22T21:38:24.933Z,19.73
2023-04-22T21:41:11.000Z,20.38
2023-04-22T21:43:57.022Z,21.02
2023-04-22T21:46:46.491Z,21.05
2023-04-22T21:49:32.757Z,18.85
2023-04-22T21:52:18.982Z,19.90
2023-04-22T21:55:06.150Z,20.10
2023-04-22T21:57:52.084Z,20.23
2023-04-22T22:00:39.112Z,17.83
2023-04-22T22:03:28.084Z,18.90
2023-04-22T22:06:14.495Z,18.13
2023-04-22T22:09:03.082Z,19.08
2023-04-22T22:11:49.362Z,18.52
2023-04-22T22:14:34.962Z,17.98
2023-04-22T22:17:20.935Z,18.45
2023-04-22T22:20:12.217Z,17.75
2023-04-22T22:22:58.868Z,18.05
2023-04-22T22:25:50.492Z,18.83
2023-04-22T22:28:39.151Z,18.75
2023-04-22T22:31:25.861Z,17.10
2023-04-22T22:34:12.029Z,16.63
2023-04-22T22:36:57.455Z,18.75
2023-04-22T22:39:43.437Z,16.92
2023-04-22T22:42:29.226Z,16.48
2023-04-22T22:45:14.727Z,15.88
2023-04-22T22:48:01.265Z,15.27
2023-04-22T22:50:50.001Z,14.38
2023-04-22T22:53:39.863Z,12.20
2023-04-22T22:56:25.832Z,12.55
2023-04-22T22:59:11.694Z,11.23
2023-04-22T23:02:06.988Z,10.70
2023-04-22T23:04:54.340Z,10.48
2023-04-22T23:07:40.979Z,11.30
2023-04-22T23:10:29.879Z,8.82
2023-04-22T23:13:20.978Z,9.02
2023-04-22T23:16:07.217Z,8.52
2023-04-22T23:18:52.985Z,8.40
2023-04-22T23:21:41.663Z,7.63
2023-04-22T23:24:27.840Z,6.93
2023-04-22T23:27:14.154Z,5.60
2023-04-22T23:30:00.338Z,5.35
2023-04-22T23:33:16.901Z,5.28
2023-04-22T23:36:06.265Z,4.28
2023-04-22T23:38:52.480Z,4.30
2023-04-22T23:41:37.799Z,3.53
2023-04-22T23:44:23.921Z,3.78
2023-04-22T23:47:28.064Z,3.70
2023-04-22T23:54:04.803Z,3.65
2023-04-22T23:57:11.627Z,3.13
